Arnold, KS (67515)

9:27 AM CST on December 19, 2014 (GMT -0600)
Hays Regional | Change Station
CLOSE
Current Station
Airport
Location: Hays,
Elevation: 1998 ft
Nearby Weather Stations

Elev 1998 ft 38.84 °N, 99.27 °W | Updated 12 minutes ago

Mostly Cloudy
Mostly Cloudy
34 °F
Feels Like 29 °F
N
6
Wind Variable Wind from SSE

Today
High -- | Low -- °F
--% Chance of Precip.
Yesterday
High -- | Low -- °F
Precip. -- in
7:53 AM 5:21 PM
Waning Crescent, 7% visible
Pressure 30.18 in
Visibility 3.0 miles
Clouds Clear
Windchill 29 °F
Dew Point 25 °F
Humidity 70%
Rainfall 0.00 in
Snow Depth Not available.
UV 1 out of 12
Pollen .10 out of 12
Air Quality Not available.
Flu Activity Not available.
METAR KHYS 191515Z AUTO 15005KT 3SM CLR 01/M04 A3018 RMK AO1

More Conditions Fewer Conditions

Pressure 30.18 in
Visibility 3.0 miles
Clouds Clear
Windchill 29 °F
Dew Point 25 °F
Humidity 70%
Rainfall 0.00 in
Snow Depth Not available.
UV 1 out of 12
Pollen .10 out of 12
Air Quality Not available.
Flu Activity Not available.
METAR KHYS 191515Z AUTO 15005KT 3SM CLR 01/M04 A3018 RMK AO1

More Conditions Fewer Conditions

10-Day Weather Forecast

Almanac

Astronomy

Dec. 19, 2014 Rise Set
Actual Time
Civil Twilight
Nautical Twilight
Astronomical Twilight
Moon
Length of Visible Light
Length of Day
Tomorrow will be .
, % of the Moon is Illuminated

Today's Extremes

State Highs State Lows

Community

WunderPhotos

Upload Photos

1,778,997 photos uploaded!

WunderBlogs® & News

Nearby

Air Quality

  Air Quality AQ Index Pollutant
Not available.

Snow Depth

Station Depth Elevation

Earthquake Activity

City Distance Mag. Time & Date
Minimum magnitude displayed is 2.5.

Coastal Water Temperatures

Place Temperature

Nearby Weather Stations